sensor_id;sensor_type;location;lat;lon;timestamp;P1;durP1;ratioP1;P2;durP2;ratioP2
30384;SDS011;17181;51.002;4.096;2023-04-03T00:00:06;11.93;;;4.53;;
30384;SDS011;17181;51.002;4.096;2023-04-03T00:02:32;8.43;;;3.67;;
30384;SDS011;17181;51.002;4.096;2023-04-03T00:04:59;5.83;;;3.97;;
30384;SDS011;17181;51.002;4.096;2023-04-03T00:07:25;5.27;;;4.00;;
30384;SDS011;17181;51.002;4.096;2023-04-03T00:09:51;16.63;;;4.53;;
30384;SDS011;17181;51.002;4.096;2023-04-03T00:12:17;9.23;;;4.03;;
30384;SDS011;17181;51.002;4.096;2023-04-03T00:14:43;5.07;;;3.30;;
30384;SDS011;17181;51.002;4.096;2023-04-03T00:17:09;4.90;;;2.63;;
30384;SDS011;17181;51.002;4.096;2023-04-03T00:19:34;5.67;;;3.07;;
30384;SDS011;17181;51.002;4.096;2023-04-03T00:22:00;4.27;;;3.40;;
30384;SDS011;17181;51.002;4.096;2023-04-03T00:24:26;13.43;;;3.50;;
30384;SDS011;17181;51.002;4.096;2023-04-03T00:26:52;10.30;;;4.30;;
30384;SDS011;17181;51.002;4.096;2023-04-03T00:29:18;5.33;;;3.50;;
30384;SDS011;17181;51.002;4.096;2023-04-03T00:31:44;10.80;;;4.63;;
30384;SDS011;17181;51.002;4.096;2023-04-03T00:34:10;8.47;;;3.87;;
30384;SDS011;17181;51.002;4.096;2023-04-03T00:36:36;8.63;;;4.03;;
30384;SDS011;17181;51.002;4.096;2023-04-03T00:39:01;8.50;;;4.43;;
30384;SDS011;17181;51.002;4.096;2023-04-03T00:41:27;6.67;;;4.27;;
30384;SDS011;17181;51.002;4.096;2023-04-03T00:43:53;6.27;;;4.30;;
30384;SDS011;17181;51.002;4.096;2023-04-03T00:46:19;6.10;;;3.47;;
30384;SDS011;17181;51.002;4.096;2023-04-03T00:48:45;8.27;;;3.93;;
30384;SDS011;17181;51.002;4.096;2023-04-03T00:51:20;11.40;;;5.73;;
30384;SDS011;17181;51.002;4.096;2023-04-03T00:53:55;6.67;;;3.97;;
30384;SDS011;17181;51.002;4.096;2023-04-03T00:56:25;5.23;;;3.70;;
30384;SDS011;17181;51.002;4.096;2023-04-03T00:58:54;8.57;;;3.67;;
30384;SDS011;17181;51.002;4.096;2023-04-03T01:01:22;8.00;;;3.33;;
30384;SDS011;17181;51.002;4.096;2023-04-03T01:03:51;6.73;;;3.00;;
30384;SDS011;17181;51.002;4.096;2023-04-03T01:06:26;3.90;;;2.70;;
30384;SDS011;17181;51.002;4.096;2023-04-03T01:09:01;6.20;;;2.77;;
30384;SDS011;17181;51.002;4.096;2023-04-03T01:11:28;2.43;;;2.30;;
30384;SDS011;17181;51.002;4.096;2023-04-03T01:13:54;3.63;;;2.27;;
30384;SDS011;17181;51.002;4.096;2023-04-03T01:16:19;2.43;;;2.23;;
30384;SDS011;17181;51.002;4.096;2023-04-03T01:18:46;5.60;;;2.20;;
30384;SDS011;17181;51.002;4.096;2023-04-03T01:26:50;6.10;;;2.47;;
30384;SDS011;17181;51.002;4.096;2023-04-03T01:29:16;2.00;;;1.50;;
30384;SDS011;17181;51.002;4.096;2023-04-03T01:34:22;5.63;;;2.43;;
30384;SDS011;17181;51.002;4.096;2023-04-03T01:36:49;2.53;;;2.30;;
30384;SDS011;17181;51.002;4.096;2023-04-03T01:39:16;3.13;;;2.83;;
30384;SDS011;17181;51.002;4.096;2023-04-03T01:41:42;5.60;;;3.57;;
30384;SDS011;17181;51.002;4.096;2023-04-03T01:44:13;5.33;;;3.20;;
30384;SDS011;17181;51.002;4.096;2023-04-03T01:46:39;2.67;;;2.23;;
30384;SDS011;17181;51.002;4.096;2023-04-03T01:49:06;8.97;;;2.50;;
30384;SDS011;17181;51.002;4.096;2023-04-03T01:51:32;6.00;;;3.03;;
30384;SDS011;17181;51.002;4.096;2023-04-03T01:53:58;3.33;;;2.40;;
30384;SDS011;17181;51.002;4.096;2023-04-03T01:56:24;3.77;;;3.13;;
30384;SDS011;17181;51.002;4.096;2023-04-03T01:58:50;7.07;;;3.40;;
30384;SDS011;17181;51.002;4.096;2023-04-03T02:01:16;6.83;;;2.63;;
30384;SDS011;17181;51.002;4.096;2023-04-03T02:03:42;3.43;;;2.53;;
30384;SDS011;17181;51.002;4.096;2023-04-03T02:06:08;2.40;;;2.00;;
30384;SDS011;17181;51.002;4.096;2023-04-03T02:08:34;3.07;;;2.73;;
30384;SDS011;17181;51.002;4.096;2023-04-03T02:11:00;8.10;;;2.23;;
30384;SDS011;17181;51.002;4.096;2023-04-03T02:13:26;2.13;;;2.00;;
30384;SDS011;17181;51.002;4.096;2023-04-03T02:15:52;5.37;;;3.33;;
30384;SDS011;17181;51.002;4.096;2023-04-03T02:18:17;4.63;;;2.77;;
30384;SDS011;17181;51.002;4.096;2023-04-03T02:20:43;3.20;;;2.77;;
30384;SDS011;17181;51.002;4.096;2023-04-03T02:23:11;6.23;;;2.80;;
30384;SDS011;17181;51.002;4.096;2023-04-03T02:25:36;6.80;;;3.27;;
30384;SDS011;17181;51.002;4.096;2023-04-03T02:28:02;3.90;;;3.17;;
30384;SDS011;17181;51.002;4.096;2023-04-03T02:30:29;1.87;;;1.77;;
30384;SDS011;17181;51.002;4.096;2023-04-03T02:32:55;3.87;;;2.77;;
30384;SDS011;17181;51.002;4.096;2023-04-03T02:35:21;4.67;;;3.30;;
30384;SDS011;17181;51.002;4.096;2023-04-03T02:37:48;6.20;;;3.30;;
30384;SDS011;17181;51.002;4.096;2023-04-03T02:40:13;5.43;;;3.07;;
30384;SDS011;17181;51.002;4.096;2023-04-03T02:42:40;4.60;;;2.33;;
30384;SDS011;17181;51.002;4.096;2023-04-03T02:45:06;5.67;;;3.40;;
30384;SDS011;17181;51.002;4.096;2023-04-03T02:47:32;13.67;;;3.00;;
30384;SDS011;17181;51.002;4.096;2023-04-03T02:49:58;4.73;;;3.17;;
30384;SDS011;17181;51.002;4.096;2023-04-03T02:52:23;3.83;;;2.70;;
30384;SDS011;17181;51.002;4.096;2023-04-03T02:54:52;3.70;;;2.47;;
30384;SDS011;17181;51.002;4.096;2023-04-03T02:57:18;4.13;;;2.83;;
30384;SDS011;17181;51.002;4.096;2023-04-03T02:59:45;4.73;;;2.50;;
30384;SDS011;17181;51.002;4.096;2023-04-03T03:02:11;3.80;;;2.80;;
30384;SDS011;17181;51.002;4.096;2023-04-03T03:04:37;3.47;;;3.07;;
30384;SDS011;17181;51.002;4.096;2023-04-03T03:07:03;7.37;;;3.60;;
30384;SDS011;17181;51.002;4.096;2023-04-03T03:09:29;2.93;;;2.67;;
30384;SDS011;17181;51.002;4.096;2023-04-03T03:11:55;4.90;;;3.03;;
30384;SDS011;17181;51.002;4.096;2023-04-03T03:14:22;3.70;;;3.37;;
30384;SDS011;17181;51.002;4.096;2023-04-03T03:16:48;6.17;;;3.63;;
30384;SDS011;17181;51.002;4.096;2023-04-03T03:19:14;2.87;;;2.67;;
30384;SDS011;17181;51.002;4.096;2023-04-03T03:21:40;3.27;;;2.47;;
30384;SDS011;17181;51.002;4.096;2023-04-03T03:24:06;4.53;;;3.00;;
30384;SDS011;17181;51.002;4.096;2023-04-03T03:26:32;6.07;;;4.43;;
30384;SDS011;17181;51.002;4.096;2023-04-03T03:28:58;8.67;;;2.40;;
30384;SDS011;17181;51.002;4.096;2023-04-03T03:31:25;6.00;;;3.87;;
30384;SDS011;17181;51.002;4.096;2023-04-03T03:33:50;4.03;;;3.47;;
30384;SDS011;17181;51.002;4.096;2023-04-03T03:36:16;6.20;;;3.30;;
30384;SDS011;17181;51.002;4.096;2023-04-03T03:38:42;3.50;;;2.73;;
30384;SDS011;17181;51.002;4.096;2023-04-03T03:41:08;5.87;;;3.27;;
30384;SDS011;17181;51.002;4.096;2023-04-03T03:43:34;3.00;;;2.70;;
30384;SDS011;17181;51.002;4.096;2023-04-03T03:46:02;5.20;;;4.00;;
30384;SDS011;17181;51.002;4.096;2023-04-03T03:48:28;7.67;;;3.37;;
30384;SDS011;17181;51.002;4.096;2023-04-03T03:50:54;5.93;;;3.13;;
30384;SDS011;17181;51.002;4.096;2023-04-03T03:53:24;4.87;;;3.73;;
30384;SDS011;17181;51.002;4.096;2023-04-03T03:55:53;5.00;;;3.17;;
30384;SDS011;17181;51.002;4.096;2023-04-03T03:58:21;3.47;;;3.10;;
30384;SDS011;17181;51.002;4.096;2023-04-03T04:00:47;7.27;;;4.00;;
30384;SDS011;17181;51.002;4.096;2023-04-03T04:03:13;4.87;;;3.33;;
30384;SDS011;17181;51.002;4.096;2023-04-03T04:05:40;5.27;;;3.67;;
30384;SDS011;17181;51.002;4.096;2023-04-03T04:08:06;3.57;;;3.30;;
30384;SDS011;17181;51.002;4.096;2023-04-03T04:10:32;4.43;;;3.07;;
30384;SDS011;17181;51.002;4.096;2023-04-03T04:12:59;9.47;;;3.37;;
30384;SDS011;17181;51.002;4.096;2023-04-03T04:15:27;4.13;;;2.67;;
30384;SDS011;17181;51.002;4.096;2023-04-03T04:17:54;5.13;;;3.53;;
30384;SDS011;17181;51.002;4.096;2023-04-03T04:20:21;3.03;;;2.57;;
30384;SDS011;17181;51.002;4.096;2023-04-03T04:22:48;2.37;;;2.23;;
30384;SDS011;17181;51.002;4.096;2023-04-03T04:25:15;4.27;;;3.00;;
30384;SDS011;17181;51.002;4.096;2023-04-03T04:27:41;5.60;;;4.07;;
30384;SDS011;17181;51.002;4.096;2023-04-03T04:30:07;4.97;;;3.40;;
30384;SDS011;17181;51.002;4.096;2023-04-03T04:32:35;7.40;;;3.20;;
30384;SDS011;17181;51.002;4.096;2023-04-03T04:35:01;4.77;;;3.33;;
30384;SDS011;17181;51.002;4.096;2023-04-03T04:37:29;4.93;;;2.80;;
30384;SDS011;17181;51.002;4.096;2023-04-03T04:39:55;4.23;;;3.47;;
30384;SDS011;17181;51.002;4.096;2023-04-03T04:42:21;9.03;;;3.47;;
30384;SDS011;17181;51.002;4.096;2023-04-03T04:44:48;2.93;;;2.63;;
30384;SDS011;17181;51.002;4.096;2023-04-03T04:47:14;7.53;;;3.93;;
30384;SDS011;17181;51.002;4.096;2023-04-03T04:49:41;3.67;;;2.77;;
30384;SDS011;17181;51.002;4.096;2023-04-03T04:52:07;3.00;;;2.80;;
30384;SDS011;17181;51.002;4.096;2023-04-03T04:54:33;4.67;;;3.93;;
30384;SDS011;17181;51.002;4.096;2023-04-03T04:56:59;3.90;;;2.90;;
30384;SDS011;17181;51.002;4.096;2023-04-03T04:59:27;7.23;;;3.57;;
30384;SDS011;17181;51.002;4.096;2023-04-03T05:01:55;2.93;;;2.73;;
30384;SDS011;17181;51.002;4.096;2023-04-03T05:04:21;5.73;;;4.00;;
30384;SDS011;17181;51.002;4.096;2023-04-03T05:06:51;4.57;;;3.30;;
30384;SDS011;17181;51.002;4.096;2023-04-03T05:09:21;4.53;;;3.50;;
30384;SDS011;17181;51.002;4.096;2023-04-03T05:11:49;4.87;;;3.93;;
30384;SDS011;17181;51.002;4.096;2023-04-03T05:14:17;3.97;;;3.23;;
30384;SDS011;17181;51.002;4.096;2023-04-03T05:16:44;3.37;;;3.03;;
30384;SDS011;17181;51.002;4.096;2023-04-03T05:19:10;7.70;;;3.97;;
30384;SDS011;17181;51.002;4.096;2023-04-03T05:21:38;4.23;;;3.83;;
30384;SDS011;17181;51.002;4.096;2023-04-03T05:24:09;3.33;;;2.63;;
30384;SDS011;17181;51.002;4.096;2023-04-03T05:26:37;5.23;;;3.87;;
30384;SDS011;17181;51.002;4.096;2023-04-03T05:29:04;4.57;;;3.07;;
30384;SDS011;17181;51.002;4.096;2023-04-03T05:31:31;4.37;;;2.87;;
30384;SDS011;17181;51.002;4.096;2023-04-03T05:33:57;3.60;;;3.27;;
30384;SDS011;17181;51.002;4.096;2023-04-03T05:36:24;4.73;;;3.80;;
30384;SDS011;17181;51.002;4.096;2023-04-03T05:38:54;6.33;;;3.63;;
30384;SDS011;17181;51.002;4.096;2023-04-03T05:41:22;6.97;;;3.53;;
30384;SDS011;17181;51.002;4.096;2023-04-03T05:43:48;10.93;;;4.10;;
30384;SDS011;17181;51.002;4.096;2023-04-03T05:46:16;6.93;;;4.40;;
30384;SDS011;17181;51.002;4.096;2023-04-03T05:48:46;4.27;;;3.67;;
30384;SDS011;17181;51.002;4.096;2023-04-03T05:51:17;5.17;;;3.50;;
30384;SDS011;17181;51.002;4.096;2023-04-03T05:54:24;7.07;;;3.77;;
30384;SDS011;17181;51.002;4.096;2023-04-03T05:56:56;6.63;;;3.63;;
30384;SDS011;17181;51.002;4.096;2023-04-03T05:59:22;26.47;;;3.97;;
30384;SDS011;17181;51.002;4.096;2023-04-03T06:01:51;4.30;;;3.20;;
30384;SDS011;17181;51.002;4.096;2023-04-03T06:04:17;5.93;;;3.30;;
30384;SDS011;17181;51.002;4.096;2023-04-03T06:06:45;8.27;;;3.17;;
30384;SDS011;17181;51.002;4.096;2023-04-03T06:09:22;4.87;;;3.50;;
30384;SDS011;17181;51.002;4.096;2023-04-03T06:11:49;6.53;;;2.87;;
30384;SDS011;17181;51.002;4.096;2023-04-03T06:14:16;3.67;;;3.37;;
30384;SDS011;17181;51.002;4.096;2023-04-03T06:16:42;5.33;;;3.43;;
30384;SDS011;17181;51.002;4.096;2023-04-03T06:19:09;6.03;;;3.40;;
30384;SDS011;17181;51.002;4.096;2023-04-03T06:21:39;6.63;;;3.23;;
30384;SDS011;17181;51.002;4.096;2023-04-03T06:24:05;8.73;;;4.73;;
30384;SDS011;17181;51.002;4.096;2023-04-03T06:26:32;6.23;;;4.33;;
30384;SDS011;17181;51.002;4.096;2023-04-03T06:28:58;4.77;;;3.97;;
30384;SDS011;17181;51.002;4.096;2023-04-03T06:31:24;6.70;;;4.57;;
30384;SDS011;17181;51.002;4.096;2023-04-03T06:33:50;10.43;;;4.60;;
30384;SDS011;17181;51.002;4.096;2023-04-03T06:36:17;10.20;;;6.17;;
30384;SDS011;17181;51.002;4.096;2023-04-03T06:38:47;6.73;;;4.00;;
30384;SDS011;17181;51.002;4.096;2023-04-03T06:41:13;9.10;;;4.50;;
30384;SDS011;17181;51.002;4.096;2023-04-03T06:43:39;9.03;;;6.00;;
30384;SDS011;17181;51.002;4.096;2023-04-03T06:46:05;10.03;;;6.07;;
30384;SDS011;17181;51.002;4.096;2023-04-03T06:48:31;7.67;;;6.00;;
30384;SDS011;17181;51.002;4.096;2023-04-03T06:50:57;10.37;;;6.77;;
30384;SDS011;17181;51.002;4.096;2023-04-03T06:53:23;9.67;;;6.53;;
30384;SDS011;17181;51.002;4.096;2023-04-03T06:55:49;14.73;;;7.07;;
30384;SDS011;17181;51.002;4.096;2023-04-03T06:58:14;10.87;;;7.40;;
30384;SDS011;17181;51.002;4.096;2023-04-03T07:00:42;13.13;;;7.23;;
30384;SDS011;17181;51.002;4.096;2023-04-03T07:03:12;16.10;;;8.80;;
30384;SDS011;17181;51.002;4.096;2023-04-03T07:05:37;9.90;;;6.67;;
30384;SDS011;17181;51.002;4.096;2023-04-03T07:08:03;7.23;;;6.50;;
30384;SDS011;17181;51.002;4.096;2023-04-03T07:10:29;17.40;;;7.57;;
30384;SDS011;17181;51.002;4.096;2023-04-03T07:12:55;19.67;;;10.43;;
30384;SDS011;17181;51.002;4.096;2023-04-03T07:15:21;8.60;;;5.87;;
30384;SDS011;17181;51.002;4.096;2023-04-03T07:17:47;16.57;;;4.30;;
30384;SDS011;17181;51.002;4.096;2023-04-03T07:20:13;6.27;;;4.97;;
30384;SDS011;17181;51.002;4.096;2023-04-03T07:22:40;4.63;;;3.23;;
30384;SDS011;17181;51.002;4.096;2023-04-03T07:25:06;5.50;;;2.53;;
30384;SDS011;17181;51.002;4.096;2023-04-03T07:27:32;7.40;;;3.97;;
30384;SDS011;17181;51.002;4.096;2023-04-03T07:29:59;5.20;;;3.57;;
30384;SDS011;17181;51.002;4.096;2023-04-03T07:32:25;4.30;;;3.33;;
30384;SDS011;17181;51.002;4.096;2023-04-03T07:34:50;7.00;;;3.87;;
30384;SDS011;17181;51.002;4.096;2023-04-03T07:37:16;7.17;;;4.57;;
30384;SDS011;17181;51.002;4.096;2023-04-03T07:39:43;6.00;;;3.63;;
30384;SDS011;17181;51.002;4.096;2023-04-03T07:42:10;8.03;;;4.10;;
30384;SDS011;17181;51.002;4.096;2023-04-03T07:44:37;5.13;;;3.60;;
30384;SDS011;17181;51.002;4.096;2023-04-03T07:47:03;4.13;;;3.57;;
30384;SDS011;17181;51.002;4.096;2023-04-03T07:49:29;9.30;;;3.33;;
30384;SDS011;17181;51.002;4.096;2023-04-03T07:51:55;5.33;;;2.87;;
30384;SDS011;17181;51.002;4.096;2023-04-03T07:54:21;7.63;;;3.30;;
30384;SDS011;17181;51.002;4.096;2023-04-03T07:56:46;8.17;;;2.23;;
30384;SDS011;17181;51.002;4.096;2023-04-03T07:59:12;4.47;;;3.07;;
30384;SDS011;17181;51.002;4.096;2023-04-03T08:01:38;6.50;;;3.33;;
30384;SDS011;17181;51.002;4.096;2023-04-03T08:04:03;9.87;;;3.93;;
30384;SDS011;17181;51.002;4.096;2023-04-03T08:06:30;6.60;;;4.00;;
30384;SDS011;17181;51.002;4.096;2023-04-03T08:08:59;5.60;;;3.97;;
30384;SDS011;17181;51.002;4.096;2023-04-03T08:11:25;7.43;;;3.63;;
30384;SDS011;17181;51.002;4.096;2023-04-03T08:13:52;7.97;;;2.93;;
30384;SDS011;17181;51.002;4.096;2023-04-03T08:16:18;4.10;;;2.43;;
30384;SDS011;17181;51.002;4.096;2023-04-03T08:18:47;4.60;;;3.13;;
30384;SDS011;17181;51.002;4.096;2023-04-03T08:21:13;4.20;;;2.80;;
30384;SDS011;17181;51.002;4.096;2023-04-03T08:23:39;1.37;;;1.27;;
30384;SDS011;17181;51.002;4.096;2023-04-03T08:26:09;4.10;;;1.73;;
30384;SDS011;17181;51.002;4.096;2023-04-03T08:28:37;8.53;;;3.03;;
